LFPB/LBG METAR and TAF weather

Enter ICAO airport designator
Station Type Date Time Source
LFPB METAR 2020/09/24 12:00 UTC NOAA

LFPB 241200Z AUTO 20015KT 9999 FEW014/// OVC060/// ///TCU 16/12 Q1002 TEMPO 26020G40KT 2000 TSRAGS BKN012 BKN016CB


Station Type Date Time Source
LFPB Decoded METAR 2020/09/24 12:00 UTC NOAA

Paris / Le Bourget, France (LFPB) 48-58N 002-27E 65M
Sep 24, 2020 - 08:00 AM EDT / 2020.09.24 1200 UTC
Wind: from the SSW (200 degrees) at 17 MPH (15 KT):0
Visibility: greater than 7 mile(s):0
Sky conditions: overcast
Weather: Cumulonimbus clouds, towering cumulus clouds observed
Temperature: 60 F (16 C)
Dew Point: 53 F (12 C)
Relative Humidity: 77%
Pressure (altimeter): 29.59 in. Hg (1002 hPa)
ob: LFPB 241200Z AUTO 20015KT 9999 FEW014/// OVC060/// ///TCU 16/12 Q1002 TEMPO 26020G40KT 2000 TSRAGS BKN012 BKN016CB
cycle: 12

Station Type Date Time Source
LFPB TAF 2020/09/24 12:21 UTC NOAA

TAF TAF LFPB 241100Z 2412/2512 20017G30KT 9999 BKN020 BKN070
TEMPO 2412/2420 4000 SHRA BKN020CB PROB30
TEMPO 2413/2419 26020G40KT 2000 TSRAGS BKN012 BKN016CB
BECMG 2419/2421 23012KT
TEMPO 2505/2508 20015G25KT 4000 RA BKN012 SCT014TCU
BECMG 2508/2510 31020G30KT
TEMPO 2508/2512 4000 SHRA BKN012 BKN020CB PROB30
TEMPO 2510/2512 2000 TSRA

Example: see airport list